sensor_id;sensor_type;location;lat;lon;timestamp;temperature;humidity
40600;DHT22;26309;50.924;4.754;2023-07-20T00:01:24;16.80;99.90
40600;DHT22;26309;50.924;4.754;2023-07-20T00:03:49;16.80;99.90
40600;DHT22;26309;50.924;4.754;2023-07-20T00:06:24;16.90;99.90
40600;DHT22;26309;50.924;4.754;2023-07-20T00:08:51;16.90;99.90
40600;DHT22;26309;50.924;4.754;2023-07-20T00:11:17;16.90;99.90
40600;DHT22;26309;50.924;4.754;2023-07-20T00:13:43;16.90;99.90
40600;DHT22;26309;50.924;4.754;2023-07-20T00:16:09;16.90;99.90
40600;DHT22;26309;50.924;4.754;2023-07-20T00:18:35;17.00;99.90
40600;DHT22;26309;50.924;4.754;2023-07-20T00:21:01;17.10;99.90
40600;DHT22;26309;50.924;4.754;2023-07-20T00:23:27;17.00;99.90
40600;DHT22;26309;50.924;4.754;2023-07-20T00:25:53;16.90;99.90
40600;DHT22;26309;50.924;4.754;2023-07-20T00:28:19;16.90;99.90
40600;DHT22;26309;50.924;4.754;2023-07-20T00:30:45;16.90;99.90
40600;DHT22;26309;50.924;4.754;2023-07-20T00:33:12;17.00;99.90
40600;DHT22;26309;50.924;4.754;2023-07-20T00:35:38;17.20;99.90
40600;DHT22;26309;50.924;4.754;2023-07-20T00:38:05;17.20;99.90
40600;DHT22;26309;50.924;4.754;2023-07-20T00:40:42;17.30;99.90
40600;DHT22;26309;50.924;4.754;2023-07-20T00:43:09;17.30;99.90
40600;DHT22;26309;50.924;4.754;2023-07-20T00:45:36;17.30;99.90
40600;DHT22;26309;50.924;4.754;2023-07-20T00:48:05;17.20;99.90
40600;DHT22;26309;50.924;4.754;2023-07-20T00:50:35;17.10;99.90
40600;DHT22;26309;50.924;4.754;2023-07-20T00:53:03;17.00;99.90
40600;DHT22;26309;50.924;4.754;2023-07-20T00:55:30;17.20;99.90
40600;DHT22;26309;50.924;4.754;2023-07-20T00:57:57;17.30;99.90
40600;DHT22;26309;50.924;4.754;2023-07-20T01:00:24;17.30;99.90
40600;DHT22;26309;50.924;4.754;2023-07-20T01:02:51;17.30;99.90
40600;DHT22;26309;50.924;4.754;2023-07-20T01:05:20;17.20;99.90
40600;DHT22;26309;50.924;4.754;2023-07-20T01:07:59;17.10;99.90
40600;DHT22;26309;50.924;4.754;2023-07-20T01:10:44;17.00;99.90
40600;DHT22;26309;50.924;4.754;2023-07-20T01:13:16;17.20;99.90
40600;DHT22;26309;50.924;4.754;2023-07-20T01:15:49;17.30;99.90
40600;DHT22;26309;50.924;4.754;2023-07-20T01:18:16;17.20;99.90
40600;DHT22;26309;50.924;4.754;2023-07-20T01:20:42;17.30;99.90
40600;DHT22;26309;50.924;4.754;2023-07-20T01:28:50;17.40;99.90
40600;DHT22;26309;50.924;4.754;2023-07-20T01:31:27;17.50;99.90
40600;DHT22;26309;50.924;4.754;2023-07-20T01:34:00;17.40;99.90
40600;DHT22;26309;50.924;4.754;2023-07-20T01:36:29;17.30;99.90
40600;DHT22;26309;50.924;4.754;2023-07-20T01:39:02;17.20;99.90
40600;DHT22;26309;50.924;4.754;2023-07-20T01:41:30;17.20;99.90
40600;DHT22;26309;50.924;4.754;2023-07-20T01:44:00;17.10;99.90
40600;DHT22;26309;50.924;4.754;2023-07-20T01:46:28;17.10;99.90
40600;DHT22;26309;50.924;4.754;2023-07-20T01:48:54;17.20;99.90
40600;DHT22;26309;50.924;4.754;2023-07-20T01:51:20;17.20;99.90
40600;DHT22;26309;50.924;4.754;2023-07-20T01:53:46;17.20;99.90
40600;DHT22;26309;50.924;4.754;2023-07-20T01:56:12;17.20;99.90
40600;DHT22;26309;50.924;4.754;2023-07-20T01:58:39;17.20;99.90
40600;DHT22;26309;50.924;4.754;2023-07-20T02:01:06;17.20;99.90
40600;DHT22;26309;50.924;4.754;2023-07-20T02:03:34;17.20;99.90
40600;DHT22;26309;50.924;4.754;2023-07-20T02:06:05;16.90;99.90
40600;DHT22;26309;50.924;4.754;2023-07-20T02:08:31;16.80;99.90
40600;DHT22;26309;50.924;4.754;2023-07-20T02:10:57;16.80;99.90
40600;DHT22;26309;50.924;4.754;2023-07-20T02:13:23;16.80;99.90
40600;DHT22;26309;50.924;4.754;2023-07-20T02:15:49;16.80;99.90
40600;DHT22;26309;50.924;4.754;2023-07-20T02:18:15;16.80;99.90
40600;DHT22;26309;50.924;4.754;2023-07-20T02:20:41;16.70;99.90
40600;DHT22;26309;50.924;4.754;2023-07-20T02:23:07;16.70;99.90
40600;DHT22;26309;50.924;4.754;2023-07-20T02:25:33;16.70;99.90
40600;DHT22;26309;50.924;4.754;2023-07-20T02:27:59;16.70;99.90
40600;DHT22;26309;50.924;4.754;2023-07-20T02:30:25;16.70;99.90
40600;DHT22;26309;50.924;4.754;2023-07-20T02:32:51;16.70;99.90
40600;DHT22;26309;50.924;4.754;2023-07-20T02:35:17;16.70;99.90
40600;DHT22;26309;50.924;4.754;2023-07-20T02:37:56;16.60;99.90
40600;DHT22;26309;50.924;4.754;2023-07-20T02:40:21;16.70;99.90
40600;DHT22;26309;50.924;4.754;2023-07-20T02:42:48;16.70;99.90
40600;DHT22;26309;50.924;4.754;2023-07-20T02:45:14;16.70;99.90
40600;DHT22;26309;50.924;4.754;2023-07-20T02:47:40;16.70;99.90
40600;DHT22;26309;50.924;4.754;2023-07-20T02:50:08;16.60;99.90
40600;DHT22;26309;50.924;4.754;2023-07-20T02:52:33;16.50;99.90
40600;DHT22;26309;50.924;4.754;2023-07-20T02:54:59;16.60;99.90
40600;DHT22;26309;50.924;4.754;2023-07-20T02:57:25;16.60;99.90
40600;DHT22;26309;50.924;4.754;2023-07-20T02:59:54;16.70;99.90
40600;DHT22;26309;50.924;4.754;2023-07-20T03:02:20;16.50;99.90
40600;DHT22;26309;50.924;4.754;2023-07-20T03:04:46;16.50;99.90
40600;DHT22;26309;50.924;4.754;2023-07-20T03:07:12;16.40;99.90
40600;DHT22;26309;50.924;4.754;2023-07-20T03:09:38;16.30;99.90
40600;DHT22;26309;50.924;4.754;2023-07-20T03:12:05;16.30;99.90
40600;DHT22;26309;50.924;4.754;2023-07-20T03:14:31;16.30;99.90
40600;DHT22;26309;50.924;4.754;2023-07-20T03:16:57;16.30;99.90
40600;DHT22;26309;50.924;4.754;2023-07-20T03:19:23;16.30;99.90
40600;DHT22;26309;50.924;4.754;2023-07-20T03:21:49;16.30;99.90
40600;DHT22;26309;50.924;4.754;2023-07-20T03:24:15;16.20;99.90
40600;DHT22;26309;50.924;4.754;2023-07-20T03:26:41;16.20;99.90
40600;DHT22;26309;50.924;4.754;2023-07-20T03:29:06;16.30;99.90
40600;DHT22;26309;50.924;4.754;2023-07-20T03:31:32;16.20;99.90
40600;DHT22;26309;50.924;4.754;2023-07-20T03:33:58;16.10;99.90
40600;DHT22;26309;50.924;4.754;2023-07-20T03:36:24;16.10;99.90
40600;DHT22;26309;50.924;4.754;2023-07-20T03:38:50;16.10;99.90
40600;DHT22;26309;50.924;4.754;2023-07-20T03:41:16;16.20;99.90
40600;DHT22;26309;50.924;4.754;2023-07-20T03:43:43;16.30;99.90
40600;DHT22;26309;50.924;4.754;2023-07-20T03:46:09;16.30;99.90
40600;DHT22;26309;50.924;4.754;2023-07-20T03:48:35;16.30;99.90
40600;DHT22;26309;50.924;4.754;2023-07-20T03:51:01;16.40;99.90
40600;DHT22;26309;50.924;4.754;2023-07-20T03:53:27;16.50;99.90
40600;DHT22;26309;50.924;4.754;2023-07-20T03:55:54;16.50;99.90
40600;DHT22;26309;50.924;4.754;2023-07-20T03:58:20;16.50;99.90
40600;DHT22;26309;50.924;4.754;2023-07-20T04:00:48;16.30;99.90
40600;DHT22;26309;50.924;4.754;2023-07-20T04:03:14;16.40;99.90
40600;DHT22;26309;50.924;4.754;2023-07-20T04:05:40;16.50;99.90
40600;DHT22;26309;50.924;4.754;2023-07-20T04:08:07;16.50;99.90
40600;DHT22;26309;50.924;4.754;2023-07-20T04:10:32;16.40;99.90
40600;DHT22;26309;50.924;4.754;2023-07-20T04:12:59;16.50;99.90
40600;DHT22;26309;50.924;4.754;2023-07-20T04:15:25;16.60;99.90
40600;DHT22;26309;50.924;4.754;2023-07-20T04:17:51;16.70;99.90
40600;DHT22;26309;50.924;4.754;2023-07-20T04:20:17;16.70;99.90
40600;DHT22;26309;50.924;4.754;2023-07-20T04:22:44;16.80;99.90
40600;DHT22;26309;50.924;4.754;2023-07-20T04:25:10;16.90;99.90
40600;DHT22;26309;50.924;4.754;2023-07-20T04:27:36;17.00;99.90
40600;DHT22;26309;50.924;4.754;2023-07-20T04:30:02;17.00;99.90
40600;DHT22;26309;50.924;4.754;2023-07-20T04:32:29;16.90;99.90
40600;DHT22;26309;50.924;4.754;2023-07-20T04:34:56;17.00;99.90
40600;DHT22;26309;50.924;4.754;2023-07-20T04:37:21;17.10;99.90
40600;DHT22;26309;50.924;4.754;2023-07-20T04:39:47;17.10;99.90
40600;DHT22;26309;50.924;4.754;2023-07-20T04:42:13;17.30;99.90
40600;DHT22;26309;50.924;4.754;2023-07-20T04:44:39;17.20;99.90
40600;DHT22;26309;50.924;4.754;2023-07-20T04:47:05;17.30;99.90
40600;DHT22;26309;50.924;4.754;2023-07-20T04:49:31;17.40;99.90
40600;DHT22;26309;50.924;4.754;2023-07-20T04:51:57;17.50;99.90
40600;DHT22;26309;50.924;4.754;2023-07-20T04:54:23;17.60;99.90
40600;DHT22;26309;50.924;4.754;2023-07-20T04:56:49;17.70;99.90
40600;DHT22;26309;50.924;4.754;2023-07-20T04:59:14;17.60;99.90
40600;DHT22;26309;50.924;4.754;2023-07-20T05:01:40;17.60;99.90
40600;DHT22;26309;50.924;4.754;2023-07-20T05:04:07;17.70;99.90
40600;DHT22;26309;50.924;4.754;2023-07-20T05:06:33;17.60;99.90
40600;DHT22;26309;50.924;4.754;2023-07-20T05:08:58;17.50;99.90
40600;DHT22;26309;50.924;4.754;2023-07-20T05:11:24;17.50;99.90
40600;DHT22;26309;50.924;4.754;2023-07-20T05:13:50;17.60;99.90
40600;DHT22;26309;50.924;4.754;2023-07-20T05:16:16;17.70;99.90
40600;DHT22;26309;50.924;4.754;2023-07-20T05:18:42;17.80;99.90
40600;DHT22;26309;50.924;4.754;2023-07-20T05:21:08;17.80;99.90
40600;DHT22;26309;50.924;4.754;2023-07-20T05:23:34;17.70;99.90
40600;DHT22;26309;50.924;4.754;2023-07-20T05:26:00;17.60;99.90
40600;DHT22;26309;50.924;4.754;2023-07-20T05:28:26;17.60;99.90
40600;DHT22;26309;50.924;4.754;2023-07-20T05:30:52;17.60;99.90
40600;DHT22;26309;50.924;4.754;2023-07-20T05:33:20;17.50;99.90
40600;DHT22;26309;50.924;4.754;2023-07-20T05:35:46;17.30;99.90
40600;DHT22;26309;50.924;4.754;2023-07-20T05:38:12;17.40;99.90
40600;DHT22;26309;50.924;4.754;2023-07-20T05:40:41;17.50;99.90
40600;DHT22;26309;50.924;4.754;2023-07-20T05:43:08;17.50;99.90
40600;DHT22;26309;50.924;4.754;2023-07-20T05:45:34;17.70;99.90
40600;DHT22;26309;50.924;4.754;2023-07-20T05:48:01;18.00;99.90
40600;DHT22;26309;50.924;4.754;2023-07-20T05:50:27;18.00;99.90
40600;DHT22;26309;50.924;4.754;2023-07-20T05:52:54;18.00;99.90
40600;DHT22;26309;50.924;4.754;2023-07-20T05:55:20;18.00;99.90
40600;DHT22;26309;50.924;4.754;2023-07-20T05:57:47;18.20;99.90
40600;DHT22;26309;50.924;4.754;2023-07-20T06:00:16;18.40;99.90
40600;DHT22;26309;50.924;4.754;2023-07-20T06:02:53;18.50;99.90
40600;DHT22;26309;50.924;4.754;2023-07-20T06:05:21;18.50;99.90
40600;DHT22;26309;50.924;4.754;2023-07-20T06:07:47;18.60;99.90
40600;DHT22;26309;50.924;4.754;2023-07-20T06:10:13;18.60;99.90
40600;DHT22;26309;50.924;4.754;2023-07-20T06:12:38;18.80;99.90
40600;DHT22;26309;50.924;4.754;2023-07-20T06:15:05;18.80;99.90
40600;DHT22;26309;50.924;4.754;2023-07-20T06:17:32;19.00;99.90
40600;DHT22;26309;50.924;4.754;2023-07-20T06:19:58;19.10;99.90
40600;DHT22;26309;50.924;4.754;2023-07-20T06:22:24;19.00;99.90
40600;DHT22;26309;50.924;4.754;2023-07-20T06:24:50;19.00;99.90
40600;DHT22;26309;50.924;4.754;2023-07-20T06:27:16;18.90;99.90
40600;DHT22;26309;50.924;4.754;2023-07-20T06:29:42;18.90;99.90
40600;DHT22;26309;50.924;4.754;2023-07-20T06:32:08;19.10;99.90
40600;DHT22;26309;50.924;4.754;2023-07-20T06:34:34;19.10;99.90
40600;DHT22;26309;50.924;4.754;2023-07-20T06:37:04;19.30;99.90
40600;DHT22;26309;50.924;4.754;2023-07-20T06:39:30;19.50;99.90
40600;DHT22;26309;50.924;4.754;2023-07-20T06:42:01;19.70;99.90
40600;DHT22;26309;50.924;4.754;2023-07-20T06:44:40;19.80;99.90
40600;DHT22;26309;50.924;4.754;2023-07-20T06:47:12;20.10;99.90
40600;DHT22;26309;50.924;4.754;2023-07-20T06:49:38;20.20;99.90
40600;DHT22;26309;50.924;4.754;2023-07-20T06:52:05;20.30;99.90
40600;DHT22;26309;50.924;4.754;2023-07-20T06:54:30;20.50;99.90
40600;DHT22;26309;50.924;4.754;2023-07-20T06:56:56;20.80;99.90
40600;DHT22;26309;50.924;4.754;2023-07-20T06:59:22;20.90;99.90
40600;DHT22;26309;50.924;4.754;2023-07-20T07:01:49;21.00;99.90
40600;DHT22;26309;50.924;4.754;2023-07-20T07:04:15;20.90;99.90
40600;DHT22;26309;50.924;4.754;2023-07-20T07:06:41;21.00;99.90
40600;DHT22;26309;50.924;4.754;2023-07-20T07:09:07;20.90;99.90
40600;DHT22;26309;50.924;4.754;2023-07-20T07:11:34;21.00;99.90
40600;DHT22;26309;50.924;4.754;2023-07-20T07:14:00;20.90;99.90
40600;DHT22;26309;50.924;4.754;2023-07-20T07:16:26;20.80;99.90
40600;DHT22;26309;50.924;4.754;2023-07-20T07:18:52;20.70;99.90
40600;DHT22;26309;50.924;4.754;2023-07-20T07:21:18;20.60;99.90
40600;DHT22;26309;50.924;4.754;2023-07-20T07:23:45;20.60;99.90
40600;DHT22;26309;50.924;4.754;2023-07-20T07:26:11;20.60;99.90
40600;DHT22;26309;50.924;4.754;2023-07-20T07:28:37;20.80;99.90
40600;DHT22;26309;50.924;4.754;2023-07-20T07:31:06;20.90;99.90
40600;DHT22;26309;50.924;4.754;2023-07-20T07:33:32;21.20;99.90
40600;DHT22;26309;50.924;4.754;2023-07-20T07:35:58;21.30;99.90
40600;DHT22;26309;50.924;4.754;2023-07-20T07:38:24;21.50;99.90
40600;DHT22;26309;50.924;4.754;2023-07-20T07:40:50;21.90;99.90
40600;DHT22;26309;50.924;4.754;2023-07-20T07:43:16;22.20;99.90
40600;DHT22;26309;50.924;4.754;2023-07-20T07:45:42;22.40;99.90
40600;DHT22;26309;50.924;4.754;2023-07-20T07:48:08;22.50;99.90
40600;DHT22;26309;50.924;4.754;2023-07-20T07:50:36;22.60;99.90
40600;DHT22;26309;50.924;4.754;2023-07-20T07:53:02;22.40;99.90
40600;DHT22;26309;50.924;4.754;2023-07-20T07:55:29;22.20;99.90
40600;DHT22;26309;50.924;4.754;2023-07-20T07:57:56;22.30;99.90
40600;DHT22;26309;50.924;4.754;2023-07-20T08:00:22;22.40;99.90
40600;DHT22;26309;50.924;4.754;2023-07-20T08:02:50;22.60;99.90
40600;DHT22;26309;50.924;4.754;2023-07-20T08:05:17;22.90;99.90
40600;DHT22;26309;50.924;4.754;2023-07-20T08:07:43;23.00;99.90
40600;DHT22;26309;50.924;4.754;2023-07-20T08:10:10;23.00;99.90
40600;DHT22;26309;50.924;4.754;2023-07-20T08:12:36;23.00;99.90
40600;DHT22;26309;50.924;4.754;2023-07-20T08:15:02;23.20;99.90
40600;DHT22;26309;50.924;4.754;2023-07-20T08:17:30;23.20;99.90
40600;DHT22;26309;50.924;4.754;2023-07-20T08:19:56;23.00;99.90
40600;DHT22;26309;50.924;4.754;2023-07-20T08:22:22;22.70;99.90
40600;DHT22;26309;50.924;4.754;2023-07-20T08:24:48;22.60;99.90
40600;DHT22;26309;50.924;4.754;2023-07-20T08:27:14;22.60;99.90
40600;DHT22;26309;50.924;4.754;2023-07-20T08:29:40;22.90;99.90
40600;DHT22;26309;50.924;4.754;2023-07-20T08:32:06;23.10;99.90
40600;DHT22;26309;50.924;4.754;2023-07-20T08:34:32;23.10;99.90
40600;DHT22;26309;50.924;4.754;2023-07-20T08:36:59;23.20;99.90
40600;DHT22;26309;50.924;4.754;2023-07-20T08:39:26;23.20;99.90
40600;DHT22;26309;50.924;4.754;2023-07-20T08:42:00;23.10;99.90
40600;DHT22;26309;50.924;4.754;2023-07-20T08:44:35;23.40;99.90
40600;DHT22;26309;50.924;4.754;2023-07-20T08:47:02;23.70;99.90
40600;DHT22;26309;50.924;4.754;2023-07-20T08:49:39;23.50;99.90
40600;DHT22;26309;50.924;4.754;2023-07-20T08:52:11;23.50;99.90
40600;DHT22;26309;50.924;4.754;2023-07-20T08:54:37;23.50;99.90
40600;DHT22;26309;50.924;4.754;2023-07-20T08:57:05;23.30;99.90
40600;DHT22;26309;50.924;4.754;2023-07-20T08:59:32;23.20;99.90
40600;DHT22;26309;50.924;4.754;2023-07-20T09:02:01;23.30;99.90
40600;DHT22;26309;50.924;4.754;2023-07-20T09:04:27;23.60;99.70
40600;DHT22;26309;50.924;4.754;2023-07-20T09:06:53;23.60;99.80
40600;DHT22;26309;50.924;4.754;2023-07-20T09:09:19;23.80;99.90
40600;DHT22;26309;50.924;4.754;2023-07-20T09:11:50;23.90;99.90
40600;DHT22;26309;50.924;4.754;2023-07-20T09:14:42;24.00;99.40
40600;DHT22;26309;50.924;4.754;2023-07-20T09:17:25;23.90;99.50
40600;DHT22;26309;50.924;4.754;2023-07-20T09:19:52;24.00;99.50
40600;DHT22;26309;50.924;4.754;2023-07-20T09:22:18;24.10;99.90
40600;DHT22;26309;50.924;4.754;2023-07-20T09:24:44;24.30;99.70
40600;DHT22;26309;50.924;4.754;2023-07-20T09:27:11;24.00;99.00
40600;DHT22;26309;50.924;4.754;2023-07-20T09:29:50;23.70;97.90
40600;DHT22;26309;50.924;4.754;2023-07-20T09:32:20;23.70;97.50
40600;DHT22;26309;50.924;4.754;2023-07-20T09:34:48;23.90;97.80
40600;DHT22;26309;50.924;4.754;2023-07-20T09:37:23;23.80;97.30
40600;DHT22;26309;50.924;4.754;2023-07-20T09:39:52;23.90;97.70
40600;DHT22;26309;50.924;4.754;2023-07-20T09:42:22;24.00;99.40
40600;DHT22;26309;50.924;4.754;2023-07-20T09:44:48;24.30;97.60
40600;DHT22;26309;50.924;4.754;2023-07-20T09:47:22;24.50;97.80
40600;DHT22;26309;50.924;4.754;2023-07-20T09:49:48;24.70;95.80
40600;DHT22;26309;50.924;4.754;2023-07-20T09:52:15;24.90;97.20
40600;DHT22;26309;50.924;4.754;2023-07-20T09:54:44;25.20;94.60
40600;DHT22;26309;50.924;4.754;2023-07-20T09:57:12;25.20;95.10
40600;DHT22;26309;50.924;4.754;2023-07-20T09:59:39;25.10;94.00
40600;DHT22;26309;50.924;4.754;2023-07-20T10:02:20;25.30;93.70
40600;DHT22;26309;50.924;4.754;2023-07-20T10:04:52;25.40;94.20
40600;DHT22;26309;50.924;4.754;2023-07-20T10:07:20;25.10;92.70
40600;DHT22;26309;50.924;4.754;2023-07-20T10:09:49;25.20;94.10
40600;DHT22;26309;50.924;4.754;2023-07-20T10:12:19;25.40;94.00
40600;DHT22;26309;50.924;4.754;2023-07-20T10:17:32;25.40;91.50
40600;DHT22;26309;50.924;4.754;2023-07-20T10:20:01;25.40;91.40
40600;DHT22;26309;50.924;4.754;2023-07-20T10:22:32;25.20;90.80
40600;DHT22;26309;50.924;4.754;2023-07-20T10:25:00;24.90;91.00
40600;DHT22;26309;50.924;4.754;2023-07-20T10:27:27;25.10;94.60
40600;DHT22;26309;50.924;4.754;2023-07-20T10:29:54;25.70;91.30
40600;DHT22;26309;50.924;4.754;2023-07-20T10:32:21;25.70;90.80
40600;DHT22;26309;50.924;4.754;2023-07-20T10:34:51;25.40;90.30
40600;DHT22;26309;50.924;4.754;2023-07-20T10:37:59;25.20;89.20
40600;DHT22;26309;50.924;4.754;2023-07-20T10:40:38;25.00;90.00
40600;DHT22;26309;50.924;4.754;2023-07-20T10:43:06;25.10;91.80
40600;DHT22;26309;50.924;4.754;2023-07-20T10:45:41;24.90;90.30
40600;DHT22;26309;50.924;4.754;2023-07-20T10:48:27;24.90;92.30
40600;DHT22;26309;50.924;4.754;2023-07-20T10:51:13;24.80;94.70
40600;DHT22;26309;50.924;4.754;2023-07-20T10:53:44;25.10;92.40
40600;DHT22;26309;50.924;4.754;2023-07-20T10:56:13;25.30;91.60
40600;DHT22;26309;50.924;4.754;2023-07-20T10:58:42;25.30;91.70
40600;DHT22;26309;50.924;4.754;2023-07-20T11:01:08;25.50;90.30
40600;DHT22;26309;50.924;4.754;2023-07-20T11:03:37;25.10;91.10
40600;DHT22;26309;50.924;4.754;2023-07-20T11:06:35;24.90;90.80
40600;DHT22;26309;50.924;4.754;2023-07-20T11:09:13;25.10;90.10
40600;DHT22;26309;50.924;4.754;2023-07-20T11:11:46;25.60;87.70
40600;DHT22;26309;50.924;4.754;2023-07-20T11:14:23;25.70;90.20
40600;DHT22;26309;50.924;4.754;2023-07-20T11:16:49;25.80;88.00
40600;DHT22;26309;50.924;4.754;2023-07-20T11:19:25;25.60;84.70
40600;DHT22;26309;50.924;4.754;2023-07-20T11:21:54;25.60;83.60
40600;DHT22;26309;50.924;4.754;2023-07-20T12:41:32;26.80;80.90
40600;DHT22;26309;50.924;4.754;2023-07-20T16:28:53;23.90;90.90
40600;DHT22;26309;50.924;4.754;2023-07-20T16:37:38;21.20;99.50
40600;DHT22;26309;50.924;4.754;2023-07-20T16:52:24;18.00;99.90
